sensor_id;sensor_type;location;lat;lon;timestamp;P1;P2;P0
74440;PMS7003;62870;54.692;25.284;2022-08-19T00:03:31;13.4;12.8;9.8
74440;PMS7003;62870;54.692;25.284;2022-08-19T00:08:03;13.8;12.8;9.8
74440;PMS7003;62870;54.692;25.284;2022-08-19T00:12:51;13.8;13;10.4
74440;PMS7003;62870;54.692;25.284;2022-08-19T00:17:51;13.4;12.6;9.6
74440;PMS7003;62870;54.692;25.284;2022-08-19T00:23:31;15;14.6;11
74440;PMS7003;62870;54.692;25.284;2022-08-19T00:28:17;14.8;14.2;10.6
74440;PMS7003;62870;54.692;25.284;2022-08-19T00:33:23;16;15.4;12
74440;PMS7003;62870;54.692;25.284;2022-08-19T00:38:25;15;14.2;11.2
74440;PMS7003;62870;54.692;25.284;2022-08-19T00:43:20;14.4;13.6;10.6
74440;PMS7003;62870;54.692;25.284;2022-08-19T00:48:03;16.6;16.2;11.2
74440;PMS7003;62870;54.692;25.284;2022-08-19T00:53:24;16.4;15.2;11.4
74440;PMS7003;62870;54.692;25.284;2022-08-19T00:58:06;17.2;15.4;11.4
74440;PMS7003;62870;54.692;25.284;2022-08-19T01:02:51;17;15.3;11.5
74440;PMS7003;62870;54.692;25.284;2022-08-19T01:08:11;17.6;16.4;11.6
74440;PMS7003;62870;54.692;25.284;2022-08-19T01:13:32;17;15.6;11.6
74440;PMS7003;62870;54.692;25.284;2022-08-19T01:18:01;16;15.8;11.4
74440;PMS7003;62870;54.692;25.284;2022-08-19T01:22:50;17.8;17;12.8
74440;PMS7003;62870;54.692;25.284;2022-08-19T01:27:57;19;16.6;13
74440;PMS7003;62870;54.692;25.284;2022-08-19T01:33:17;17.6;17.4;13.2
74440;PMS7003;62870;54.692;25.284;2022-08-19T01:38:29;17.8;17;12.8
74440;PMS7003;62870;54.692;25.284;2022-08-19T01:43:03;17.8;16.2;12.2
74440;PMS7003;62870;54.692;25.284;2022-08-19T01:47:51;18.4;17;12.2
74440;PMS7003;62870;54.692;25.284;2022-08-19T01:52:51;19.2;18;13.6
74440;PMS7003;62870;54.692;25.284;2022-08-19T01:57:59;19.4;18.4;13.2
74440;PMS7003;62870;54.692;25.284;2022-08-19T02:03:13;20.5;19;15
74440;PMS7003;62870;54.692;25.284;2022-08-19T02:08:03;19.8;18.4;13.6
74440;PMS7003;62870;54.692;25.284;2022-08-19T02:13:19;18.6;16.6;13
74440;PMS7003;62870;54.692;25.284;2022-08-19T02:18:33;20;18.4;13.6
74440;PMS7003;62870;54.692;25.284;2022-08-19T02:23:13;20.8;19.6;14.8
74440;PMS7003;62870;54.692;25.284;2022-08-19T02:28:37;20.2;19;14.6
74440;PMS7003;62870;54.692;25.284;2022-08-19T02:33:23;20;18.8;14.4
74440;PMS7003;62870;54.692;25.284;2022-08-19T02:38:21;19.4;19;14.2
74440;PMS7003;62870;54.692;25.284;2022-08-19T02:43:01;17.6;17;12.8
74440;PMS7003;62870;54.692;25.284;2022-08-19T02:47:51;21.8;20;15
74440;PMS7003;62870;54.692;25.284;2022-08-19T02:53:31;21.4;19.2;13.6
74440;PMS7003;62870;54.692;25.284;2022-08-19T02:58:23;18.6;17.8;13.4
74440;PMS7003;62870;54.692;25.284;2022-08-19T03:03:23;21.8;20.3;13.8
74440;PMS7003;62870;54.692;25.284;2022-08-19T03:08:23;19.6;18.4;13.6
74440;PMS7003;62870;54.692;25.284;2022-08-19T03:13:19;18.6;17.8;13.6
74440;PMS7003;62870;54.692;25.284;2022-08-19T03:18:19;20.6;18.8;13.8
74440;PMS7003;62870;54.692;25.284;2022-08-19T03:23:25;18;17.2;13.2
74440;PMS7003;62870;54.692;25.284;2022-08-19T03:28:03;18.6;17;12.8
74440;PMS7003;62870;54.692;25.284;2022-08-19T03:33:03;18.2;17;12.6
74440;PMS7003;62870;54.692;25.284;2022-08-19T03:38:03;18;17.2;13.6
74440;PMS7003;62870;54.692;25.284;2022-08-19T03:43:35;18.6;18;13.4
74440;PMS7003;62870;54.692;25.284;2022-08-19T03:48:23;17.6;16.8;12.6
74440;PMS7003;62870;54.692;25.284;2022-08-19T03:53:13;17.6;16.8;13.2
74440;PMS7003;62870;54.692;25.284;2022-08-19T03:58:13;18;16.8;13.2
74440;PMS7003;62870;54.692;25.284;2022-08-19T04:03:11;17.5;16.8;13
74440;PMS7003;62870;54.692;25.284;2022-08-19T04:08:25;15.6;15.6;12.6
74440;PMS7003;62870;54.692;25.284;2022-08-19T04:13:01;18.8;17;13.2
74440;PMS7003;62870;54.692;25.284;2022-08-19T04:18:03;17;16.6;12.4
74440;PMS7003;62870;54.692;25.284;2022-08-19T04:22:51;19.8;18.4;14.2
74440;PMS7003;62870;54.692;25.284;2022-08-19T04:27:51;18;17.8;13
74440;PMS7003;62870;54.692;25.284;2022-08-19T04:33:13;17.8;17.6;14.4
74440;PMS7003;62870;54.692;25.284;2022-08-19T04:38:15;19.6;17.8;13.6
74440;PMS7003;62870;54.692;25.284;2022-08-19T04:43:33;18;17.8;13.8
74440;PMS7003;62870;54.692;25.284;2022-08-19T04:48:21;19.6;18.4;14.4
74440;PMS7003;62870;54.692;25.284;2022-08-19T04:53:11;18.2;16.6;12.8
74440;PMS7003;62870;54.692;25.284;2022-08-19T04:58:37;19.4;19;13.6
74440;PMS7003;62870;54.692;25.284;2022-08-19T05:03:19;17.8;17.3;13.5
74440;PMS7003;62870;54.692;25.284;2022-08-19T05:08:33;19;18.2;13.4
74440;PMS7003;62870;54.692;25.284;2022-08-19T05:12:53;20.4;19.2;14.4
74440;PMS7003;62870;54.692;25.284;2022-08-19T05:18:07;19.6;18.6;14.2
74440;PMS7003;62870;54.692;25.284;2022-08-19T05:23:35;20.6;19.4;14.4
74440;PMS7003;62870;54.692;25.284;2022-08-19T05:28:25;19.2;17.8;13.4
74440;PMS7003;62870;54.692;25.284;2022-08-19T05:33:17;19.6;18.4;13.6
74440;PMS7003;62870;54.692;25.284;2022-08-19T05:38:25;19.2;18.6;13.6
74440;PMS7003;62870;54.692;25.284;2022-08-19T05:43:21;18.2;16.4;12.6
74440;PMS7003;62870;54.692;25.284;2022-08-19T05:48:13;16.8;15.4;11.6
74440;PMS7003;62870;54.692;25.284;2022-08-19T05:53:25;15;14.2;11
74440;PMS7003;62870;54.692;25.284;2022-08-19T05:58:34;15.4;13.6;10.4
74440;PMS7003;62870;54.692;25.284;2022-08-19T06:02:51;13.6;13;9.8
74440;PMS7003;62870;54.692;25.284;2022-08-19T06:08:11;13.8;12.3;9.5
74440;PMS7003;62870;54.692;25.284;2022-08-19T06:13:33;12;12;9.6
74440;PMS7003;62870;54.692;25.284;2022-08-19T06:18:31;13.2;12.4;9.6
74440;PMS7003;62870;54.692;25.284;2022-08-19T06:23:32;13.8;12.4;10.2
74440;PMS7003;62870;54.692;25.284;2022-08-19T06:28:09;15.4;14;10.6
74440;PMS7003;62870;54.692;25.284;2022-08-19T06:33:29;13.4;12.4;9.6
74440;PMS7003;62870;54.692;25.284;2022-08-19T06:38:31;12;11;9.2
74440;PMS7003;62870;54.692;25.284;2022-08-19T06:43:13;12.2;11.2;9.2
74440;PMS7003;62870;54.692;25.284;2022-08-19T06:48:25;14;13;9.5
74440;PMS7003;62870;54.692;25.284;2022-08-19T06:53:09;11.6;11.2;8.8
74440;PMS7003;62870;54.692;25.284;2022-08-19T06:57:51;11;10;8.6
74440;PMS7003;62870;54.692;25.284;2022-08-19T07:03:13;12.5;11.8;9
74440;PMS7003;62870;54.692;25.284;2022-08-19T07:08:15;14.6;13.4;10.2
74440;PMS7003;62870;54.692;25.284;2022-08-19T07:13:31;16;15.6;11.4
74440;PMS7003;62870;54.692;25.284;2022-08-19T07:18:18;16.2;16;12.2
74440;PMS7003;62870;54.692;25.284;2022-08-19T07:23:11;18.6;16.8;12.4
74440;PMS7003;62870;54.692;25.284;2022-08-19T07:28:33;15.6;15;11.6
74440;PMS7003;62870;54.692;25.284;2022-08-19T07:33:15;14.8;14.2;10.6
74440;PMS7003;62870;54.692;25.284;2022-08-19T07:38:31;14.8;14.2;10.8
74440;PMS7003;62870;54.692;25.284;2022-08-19T07:43:01;14.2;13.2;10.6
74440;PMS7003;62870;54.692;25.284;2022-08-19T07:48:13;13.8;13.4;10.8
74440;PMS7003;62870;54.692;25.284;2022-08-19T07:53:25;13.8;13.4;11.2
74440;PMS7003;62870;54.692;25.284;2022-08-19T07:58:21;14.6;13.8;10.2
74440;PMS7003;62870;54.692;25.284;2022-08-19T08:02:51;13.8;13;9.5
74440;PMS7003;62870;54.692;25.284;2022-08-19T08:07:51;13.8;12.4;10.2
74440;PMS7003;62870;54.692;25.284;2022-08-19T08:13:19;14;12.8;9
74440;PMS7003;62870;54.692;25.284;2022-08-19T08:18:11;15;13.8;10.2
74440;PMS7003;62870;54.692;25.284;2022-08-19T08:23:15;14.8;13.2;9.4
74440;PMS7003;62870;54.692;25.284;2022-08-19T08:28:33;15.6;14.8;11
74440;PMS7003;62870;54.692;25.284;2022-08-19T08:32:51;15;14.6;11.8
74440;PMS7003;62870;54.692;25.284;2022-08-19T08:38:05;17.8;17;12.2
74440;PMS7003;62870;54.692;25.284;2022-08-19T08:43:34;16.4;15.4;11.4
74440;PMS7003;62870;54.692;25.284;2022-08-19T08:48:35;18.6;17.6;13.2
74440;PMS7003;62870;54.692;25.284;2022-08-19T08:53:27;19;18.4;13.8
74440;PMS7003;62870;54.692;25.284;2022-08-19T08:58:10;21.2;19.6;14.8
74440;PMS7003;62870;54.692;25.284;2022-08-19T09:03:29;18.3;18;13.8
74440;PMS7003;62870;54.692;25.284;2022-08-19T09:08:40;19.8;17.6;12.6
74440;PMS7003;62870;54.692;25.284;2022-08-19T09:13:26;17.6;15.4;11.8
74440;PMS7003;62870;54.692;25.284;2022-08-19T09:18:13;17;16.4;12
74440;PMS7003;62870;54.692;25.284;2022-08-19T09:23:03;15.2;14.6;11.4
74440;PMS7003;62870;54.692;25.284;2022-08-19T09:28:03;15;14;10
74440;PMS7003;62870;54.692;25.284;2022-08-19T09:33:13;13;12.8;9.6
74440;PMS7003;62870;54.692;25.284;2022-08-19T09:38:15;17.2;15.2;11.8
74440;PMS7003;62870;54.692;25.284;2022-08-19T09:43:32;14.2;13;9.6
74440;PMS7003;62870;54.692;25.284;2022-08-19T09:48:11;15.4;15;11.4
74440;PMS7003;62870;54.692;25.284;2022-08-19T09:52:51;15;14;10.8
74440;PMS7003;62870;54.692;25.284;2022-08-19T09:58:33;14.2;13.4;10.4
74440;PMS7003;62870;54.692;25.284;2022-08-19T10:03:11;13.4;12.4;9.8
74440;PMS7003;62870;54.692;25.284;2022-08-19T10:08:34;14;12.8;10.5
74440;PMS7003;62870;54.692;25.284;2022-08-19T10:13:31;13.8;13.2;10
74440;PMS7003;62870;54.692;25.284;2022-08-19T10:18:15;14.6;13.2;10.2
74440;PMS7003;62870;54.692;25.284;2022-08-19T10:23:31;14.2;13.8;10.6
74440;PMS7003;62870;54.692;25.284;2022-08-19T10:28:23;12.4;11.8;9.2
74440;PMS7003;62870;54.692;25.284;2022-08-19T10:33:01;12.6;12.4;9.8
74440;PMS7003;62870;54.692;25.284;2022-08-19T10:38:23;9.6;9.2;6.8
74440;PMS7003;62870;54.692;25.284;2022-08-19T10:43:19;9.8;9.2;7.4
74440;PMS7003;62870;54.692;25.284;2022-08-19T10:48:13;11.2;10.4;8
74440;PMS7003;62870;54.692;25.284;2022-08-19T10:53:25;9.6;8.2;6.4
74440;PMS7003;62870;54.692;25.284;2022-08-19T10:58:33;8;7.4;5.8
74440;PMS7003;62870;54.692;25.284;2022-08-19T11:03:01;8.4;7.8;6.6
74440;PMS7003;62870;54.692;25.284;2022-08-19T11:07:51;7.5;7.5;6.3
74440;PMS7003;62870;54.692;25.284;2022-08-19T11:13:35;10;9.6;7.8
74440;PMS7003;62870;54.692;25.284;2022-08-19T11:18:35;8.8;8.2;7
74440;PMS7003;62870;54.692;25.284;2022-08-19T11:23:31;7.4;7.4;6
74440;PMS7003;62870;54.692;25.284;2022-08-19T11:28:11;7.6;6.8;5.4
74440;PMS7003;62870;54.692;25.284;2022-08-19T11:33:31;7.8;7.4;6
74440;PMS7003;62870;54.692;25.284;2022-08-19T11:38:29;10.2;8.4;6.4
74440;PMS7003;62870;54.692;25.284;2022-08-19T11:43:13;9.5;8.3;6.5
74440;PMS7003;62870;54.692;25.284;2022-08-19T11:48:14;7.8;7.6;6
74440;PMS7003;62870;54.692;25.284;2022-08-19T11:53:01;8.4;8.4;7
74440;PMS7003;62870;54.692;25.284;2022-08-19T11:58:07;8.2;7.8;6.8
74440;PMS7003;62870;54.692;25.284;2022-08-19T12:02:51;7.8;7.5;6.5
74440;PMS7003;62870;54.692;25.284;2022-08-19T12:08:03;8;8;6.2
74440;PMS7003;62870;54.692;25.284;2022-08-19T12:13:33;8;8;6.3
74440;PMS7003;62870;54.692;25.284;2022-08-19T12:18:21;8.6;8;6.6
74440;PMS7003;62870;54.692;25.284;2022-08-19T12:23:11;10.6;9.2;6.6
74440;PMS7003;62870;54.692;25.284;2022-08-19T12:28:33;7;6.8;5.6
74440;PMS7003;62870;54.692;25.284;2022-08-19T12:33:19;6.8;6.4;5.6
74440;PMS7003;62870;54.692;25.284;2022-08-19T12:38:35;8;8;6.6
74440;PMS7003;62870;54.692;25.284;2022-08-19T12:42:51;6.6;6;4.8
74440;PMS7003;62870;54.692;25.284;2022-08-19T12:48:15;6.8;6;4.6
74440;PMS7003;62870;54.692;25.284;2022-08-19T12:53:33;6;5.8;5
74440;PMS7003;62870;54.692;25.284;2022-08-19T12:58:35;6.3;6;4.8
74440;PMS7003;62870;54.692;25.284;2022-08-19T13:03:23;8.6;7.6;6.2
74440;PMS7003;62870;54.692;25.284;2022-08-19T13:08:21;6.8;6.6;5.4
74440;PMS7003;62870;54.692;25.284;2022-08-19T13:13:21;6.2;6.2;5.2
74440;PMS7003;62870;54.692;25.284;2022-08-19T13:18:21;8.2;7.8;6.4
74440;PMS7003;62870;54.692;25.284;2022-08-19T13:22:59;7.8;7.4;6.4
74440;PMS7003;62870;54.692;25.284;2022-08-19T13:28:13;4.4;4.4;4
74440;PMS7003;62870;54.692;25.284;2022-08-19T13:32:51;6.6;6.4;5.4
74440;PMS7003;62870;54.692;25.284;2022-08-19T13:37:51;7.4;6.2;5.2
74440;PMS7003;62870;54.692;25.284;2022-08-19T13:43:15;6.4;5.8;4.8
74440;PMS7003;62870;54.692;25.284;2022-08-19T13:48:33;5.6;5.6;5
74440;PMS7003;62870;54.692;25.284;2022-08-19T13:53:21;5.6;5.4;4.8
74440;PMS7003;62870;54.692;25.284;2022-08-19T13:58:12;7.6;6.6;5.4
74440;PMS7003;62870;54.692;25.284;2022-08-19T14:02:57;7.8;7.8;6
74440;PMS7003;62870;54.692;25.284;2022-08-19T14:08:21;6.8;6.8;5.4
74440;PMS7003;62870;54.692;25.284;2022-08-19T14:13:35;6.6;6.2;5
74440;PMS7003;62870;54.692;25.284;2022-08-19T14:18:13;7.2;7.2;6
74440;PMS7003;62870;54.692;25.284;2022-08-19T14:22:51;7.4;7.2;5.8
74440;PMS7003;62870;54.692;25.284;2022-08-19T14:28:03;7.4;7;5.2
74440;PMS7003;62870;54.692;25.284;2022-08-19T14:33:07;5.8;5.8;5
74440;PMS7003;62870;54.692;25.284;2022-08-19T14:38:16;6.8;6.4;5
74440;PMS7003;62870;54.692;25.284;2022-08-19T14:43:15;7.4;7.4;5.8
74440;PMS7003;62870;54.692;25.284;2022-08-19T14:48:19;7.5;7.3;6
74440;PMS7003;62870;54.692;25.284;2022-08-19T14:53:33;7;7;5.6
74440;PMS7003;62870;54.692;25.284;2022-08-19T14:58:05;6.4;6.2;4.4
74440;PMS7003;62870;54.692;25.284;2022-08-19T15:03:31;5.8;5.8;4.6
74440;PMS7003;62870;54.692;25.284;2022-08-19T15:08:32;6.4;6.2;4.6
74440;PMS7003;62870;54.692;25.284;2022-08-19T15:13:17;6.8;5.8;4.6
74440;PMS7003;62870;54.692;25.284;2022-08-19T15:17:51;6;6;4.6
74440;PMS7003;62870;54.692;25.284;2022-08-19T15:22:51;6.8;6.2;4.8
74440;PMS7003;62870;54.692;25.284;2022-08-19T15:28:31;4.8;4.8;4.2
74440;PMS7003;62870;54.692;25.284;2022-08-19T15:33:01;6;5.2;4
74440;PMS7003;62870;54.692;25.284;2022-08-19T15:38:23;3.8;3.8;3.4
74440;PMS7003;62870;54.692;25.284;2022-08-19T15:43:21;6.2;5.4;4.2
74440;PMS7003;62870;54.692;25.284;2022-08-19T15:48:17;5.3;4.5;3.8
74440;PMS7003;62870;54.692;25.284;2022-08-19T15:53:13;5.4;5;3.8
74440;PMS7003;62870;54.692;25.284;2022-08-19T15:58:23;3.4;3.4;2.8
74440;PMS7003;62870;54.692;25.284;2022-08-19T16:03:01;5.4;5;3.8
74440;PMS7003;62870;54.692;25.284;2022-08-19T16:08:03;4.8;4.8;3.4
74440;PMS7003;62870;54.692;25.284;2022-08-19T16:12:59;4.8;4.8;4
74440;PMS7003;62870;54.692;25.284;2022-08-19T16:18:33;5.2;4.6;4
74440;PMS7003;62870;54.692;25.284;2022-08-19T16:23:15;5;5;4.2
74440;PMS7003;62870;54.692;25.284;2022-08-19T16:28:11;7.2;6.8;5.2
74440;PMS7003;62870;54.692;25.284;2022-08-19T16:33:03;5.8;5.6;4.8
74440;PMS7003;62870;54.692;25.284;2022-08-19T16:38:23;5.2;4.6;3.4
74440;PMS7003;62870;54.692;25.284;2022-08-19T16:43:33;5.6;5.6;4.6
74440;PMS7003;62870;54.692;25.284;2022-08-19T16:48:11;6.3;6;4.3
74440;PMS7003;62870;54.692;25.284;2022-08-19T16:53:06;6;6;4.6
74440;PMS7003;62870;54.692;25.284;2022-08-19T16:57:51;8;7;4.8
74440;PMS7003;62870;54.692;25.284;2022-08-19T17:03:09;7.8;7.4;6
74440;PMS7003;62870;54.692;25.284;2022-08-19T17:08:03;8.8;8.6;6.4
74440;PMS7003;62870;54.692;25.284;2022-08-19T17:13:17;8;8;6
74440;PMS7003;62870;54.692;25.284;2022-08-19T17:18:31;8.2;7.2;5.8
74440;PMS7003;62870;54.692;25.284;2022-08-19T17:23:18;10.2;8.8;6.8
74440;PMS7003;62870;54.692;25.284;2022-08-19T17:28:13;10.4;9.8;8
74440;PMS7003;62870;54.692;25.284;2022-08-19T17:33:29;10.8;10.8;8.6
74440;PMS7003;62870;54.692;25.284;2022-08-19T17:38:16;11.6;11.2;8.2
74440;PMS7003;62870;54.692;25.284;2022-08-19T17:43:34;11.8;10.8;8.8
74440;PMS7003;62870;54.692;25.284;2022-08-19T17:48:15;13.3;12;9.8
74440;PMS7003;62870;54.692;25.284;2022-08-19T17:53:03;12.6;12.6;10
74440;PMS7003;62870;54.692;25.284;2022-08-19T17:58:31;13.6;13.4;9.8
74440;PMS7003;62870;54.692;25.284;2022-08-19T18:03:33;14;12.8;10.4
74440;PMS7003;62870;54.692;25.284;2022-08-19T18:07:52;14;13;10
74440;PMS7003;62870;54.692;25.284;2022-08-19T18:13:21;14.4;13.4;10
74440;PMS7003;62870;54.692;25.284;2022-08-19T18:18:19;14.4;13.6;10.2
74440;PMS7003;62870;54.692;25.284;2022-08-19T18:23:11;15.6;14.8;11.8
74440;PMS7003;62870;54.692;25.284;2022-08-19T18:28:25;13.2;12.2;9.4
74440;PMS7003;62870;54.692;25.284;2022-08-19T18:33:29;14.2;13.4;10.6
74440;PMS7003;62870;54.692;25.284;2022-08-19T18:37:51;13.4;12.6;10
74440;PMS7003;62870;54.692;25.284;2022-08-19T18:42:51;12.4;12.4;9.8
74440;PMS7003;62870;54.692;25.284;2022-08-19T18:48:34;12.5;11.8;9.5
74440;PMS7003;62870;54.692;25.284;2022-08-19T18:53:32;14.6;14;10.8
74440;PMS7003;62870;54.692;25.284;2022-08-19T18:58:33;14.6;13.6;10.2
74440;PMS7003;62870;54.692;25.284;2022-08-19T19:03:21;13.4;12.4;9
74440;PMS7003;62870;54.692;25.284;2022-08-19T19:08:31;14.4;14;10
74440;PMS7003;62870;54.692;25.284;2022-08-19T19:13:32;13.4;13;10.2
74440;PMS7003;62870;54.692;25.284;2022-08-19T19:18:13;13.2;12.6;9.6
74440;PMS7003;62870;54.692;25.284;2022-08-19T19:23:13;13.8;13.2;10
74440;PMS7003;62870;54.692;25.284;2022-08-19T19:28:03;14;12.8;9.4
74440;PMS7003;62870;54.692;25.284;2022-08-19T19:33:07;15.2;14.4;10.6
74440;PMS7003;62870;54.692;25.284;2022-08-19T19:38:13;15;13.6;9.6
74440;PMS7003;62870;54.692;25.284;2022-08-19T19:43:01;14.4;13.2;9.4
74440;PMS7003;62870;54.692;25.284;2022-08-19T19:48:33;14.8;13;9.2
74440;PMS7003;62870;54.692;25.284;2022-08-19T19:53:17;13.8;12.5;9.3
74440;PMS7003;62870;54.692;25.284;2022-08-19T19:58:11;20.6;17.8;13.4
74440;PMS7003;62870;54.692;25.284;2022-08-19T20:03:27;14.6;13;10
74440;PMS7003;62870;54.692;25.284;2022-08-19T20:08:15;14.6;13.8;10.2
74440;PMS7003;62870;54.692;25.284;2022-08-19T20:13:29;13.8;13.6;10.2
74440;PMS7003;62870;54.692;25.284;2022-08-19T20:17:51;14.6;13.4;10.6
74440;PMS7003;62870;54.692;25.284;2022-08-19T20:23:05;13.8;13.4;9.4
74440;PMS7003;62870;54.692;25.284;2022-08-19T20:28:29;15.8;14.6;10
74440;PMS7003;62870;54.692;25.284;2022-08-19T20:33:21;13;12.2;9.6
74440;PMS7003;62870;54.692;25.284;2022-08-19T20:38:15;12.6;12;9
74440;PMS7003;62870;54.692;25.284;2022-08-19T20:43:21;13.4;12;9
74440;PMS7003;62870;54.692;25.284;2022-08-19T20:48:11;11.4;10.8;7.8
74440;PMS7003;62870;54.692;25.284;2022-08-19T20:53:12;13;11;9
74440;PMS7003;62870;54.692;25.284;2022-08-19T20:58:23;12.2;11.6;8.8
74440;PMS7003;62870;54.692;25.284;2022-08-19T21:03:33;11.2;10.8;8.4
74440;PMS7003;62870;54.692;25.284;2022-08-19T21:07:51;13;11.6;8.4
74440;PMS7003;62870;54.692;25.284;2022-08-19T21:13:03;12.6;10.8;8.6
74440;PMS7003;62870;54.692;25.284;2022-08-19T21:18:31;11.6;11.4;8.8
74440;PMS7003;62870;54.692;25.284;2022-08-19T21:23:31;13.4;12.4;9
74440;PMS7003;62870;54.692;25.284;2022-08-19T21:28:22;14.4;13.6;10
74440;PMS7003;62870;54.692;25.284;2022-08-19T21:32:58;13.2;12;9
74440;PMS7003;62870;54.692;25.284;2022-08-19T21:38:07;11.8;10.8;8.8
74440;PMS7003;62870;54.692;25.284;2022-08-19T21:43:21;12;11.2;9
74440;PMS7003;62870;54.692;25.284;2022-08-19T21:48:29;11.4;11.2;8.8
74440;PMS7003;62870;54.692;25.284;2022-08-19T21:52:58;12.8;11.3;9
74440;PMS7003;62870;54.692;25.284;2022-08-19T21:57:49;12.6;12.4;9.2
74440;PMS7003;62870;54.692;25.284;2022-08-19T22:03:01;12.6;11.8;9.6
74440;PMS7003;62870;54.692;25.284;2022-08-19T22:07:52;12;11.4;8.8
74440;PMS7003;62870;54.692;25.284;2022-08-19T22:13:13;13.6;12.2;9.2
74440;PMS7003;62870;54.692;25.284;2022-08-19T22:18:15;12;11.2;9
74440;PMS7003;62870;54.692;25.284;2022-08-19T22:23:19;11.4;11.2;8.6
74440;PMS7003;62870;54.692;25.284;2022-08-19T22:28:29;11.2;10.6;8
74440;PMS7003;62870;54.692;25.284;2022-08-19T22:32:57;10.8;10.5;8
74440;PMS7003;62870;54.692;25.284;2022-08-19T22:38:23;12.6;11.6;8.2
74440;PMS7003;62870;54.692;25.284;2022-08-19T22:43:28;12.6;11;8.6
74440;PMS7003;62870;54.692;25.284;2022-08-19T22:48:02;10.8;10.2;8
74440;PMS7003;62870;54.692;25.284;2022-08-19T22:53:02;11.4;10.8;8.6
74440;PMS7003;62870;54.692;25.284;2022-08-19T22:58:21;13.5;11.3;8.8
74440;PMS7003;62870;54.692;25.284;2022-08-19T23:03:25;12;11.2;9
74440;PMS7003;62870;54.692;25.284;2022-08-19T23:08:19;12.6;10.4;8.4
74440;PMS7003;62870;54.692;25.284;2022-08-19T23:13:19;11.8;10.8;8.4
74440;PMS7003;62870;54.692;25.284;2022-08-19T23:18:19;12.2;11.8;9.2
74440;PMS7003;62870;54.692;25.284;2022-08-19T23:23:17;11.2;10.8;8.6
74440;PMS7003;62870;54.692;25.284;2022-08-19T23:28:11;12;10.8;8.8
74440;PMS7003;62870;54.692;25.284;2022-08-19T23:33:22;11;10.2;8
74440;PMS7003;62870;54.692;25.284;2022-08-19T23:38:02;10.2;10;7.8
74440;PMS7003;62870;54.692;25.284;2022-08-19T23:43:01;10.6;9.6;8
74440;PMS7003;62870;54.692;25.284;2022-08-19T23:47:49;11.2;10.8;8
74440;PMS7003;62870;54.692;25.284;2022-08-19T23:53:28;11.6;11.2;8.4
74440;PMS7003;62870;54.692;25.284;2022-08-19T23:58:19;11;10.3;9
